Dahlgren, Virginia
Current Conditions -  °F | °C
As of 2:56 AM on Sunday 21 Dec 2014 (Local Time) from KNYG Reporting Station
Overcast Overcast  
Wind Chill: 33°   Ceiling: 7500
Heat Index: 33°   Visibility: 10mi
Dew Point: 26°   Wind: 3mph
Humidity: 75%   Direction: 320°NW
Pressure: 30.33"   Gusts: NA
Location:  38.33°N, 77.05°W
Report Text: KNYG 210756Z AUTO 32003KT 10SM OVC075 01/M03 A3033 RMK AO2 SLP270 T00061033 $
Loading
Personal Weather Stations






























Interactive Weather Map New forecast layout! Learn more

10-Day Weather Forecast

Advertisements
Track Severe Weather on mobile